METAR Data
IDs: Format: Raw Decoded Include TAF

Data at: 0830 UTC 27 Feb 2020

METAR for:TJNR (Roosevelt Roads Arpt, PR, US)
Text:TJNR 270753Z AUTO 35004KT 10SM FEW033 23/19 A3001 RMK AO2 SLP163 T02280189
Temperature: 22.8°C ( 73°F)
Dewpoint: 18.9°C ( 66°F) [RH = 79%]
Pressure (altimeter):30.01 inches Hg (1016.3 mb) [Sea level pressure: 1016.3 mb]
Winds:from the N (350 degrees) at 5 MPH (4 knots; 2.1 m/s)
Visibility:10 or more sm (16+ km)
Ceiling:at least 12,000 feet AGL
Clouds: few clouds at 3300 feet AGL
QC Flag:automated observation with no human augmentation